sensor_id;sensor_type;location;lat;lon;timestamp;temperature;humidity
5226;DHT22;2632;51.666;7.146;2024-03-23T00:53:12;8.50;95.10
5226;DHT22;2632;51.666;7.146;2024-03-23T00:55:38;8.50;94.90
5226;DHT22;2632;51.666;7.146;2024-03-23T00:58:03;8.50;94.40
5226;DHT22;2632;51.666;7.146;2024-03-23T01:00:29;8.50;94.70
5226;DHT22;2632;51.666;7.146;2024-03-23T01:02:55;8.60;94.60
5226;DHT22;2632;51.666;7.146;2024-03-23T01:05:21;8.50;94.50
5226;DHT22;2632;51.666;7.146;2024-03-23T01:07:46;8.50;94.30
5226;DHT22;2632;51.666;7.146;2024-03-23T01:10:12;8.50;94.40
5226;DHT22;2632;51.666;7.146;2024-03-23T01:12:38;8.40;94.50
5226;DHT22;2632;51.666;7.146;2024-03-23T01:15:04;8.40;94.30
5226;DHT22;2632;51.666;7.146;2024-03-23T01:17:30;8.50;94.70
5226;DHT22;2632;51.666;7.146;2024-03-23T01:19:55;8.40;94.40
5226;DHT22;2632;51.666;7.146;2024-03-23T01:22:21;8.50;94.60
5226;DHT22;2632;51.666;7.146;2024-03-23T01:24:47;8.50;94.50
5226;DHT22;2632;51.666;7.146;2024-03-23T01:27:13;8.50;95.10
5226;DHT22;2632;51.666;7.146;2024-03-23T01:29:38;8.50;94.60
5226;DHT22;2632;51.666;7.146;2024-03-23T01:32:05;8.50;94.50
5226;DHT22;2632;51.666;7.146;2024-03-23T01:34:31;8.50;94.80
5226;DHT22;2632;51.666;7.146;2024-03-23T01:36:56;8.40;94.30
5226;DHT22;2632;51.666;7.146;2024-03-23T01:39:22;8.40;94.60
5226;DHT22;2632;51.666;7.146;2024-03-23T01:41:48;8.40;94.40
5226;DHT22;2632;51.666;7.146;2024-03-23T01:44:13;8.40;94.20
5226;DHT22;2632;51.666;7.146;2024-03-23T01:46:41;8.40;94.40
5226;DHT22;2632;51.666;7.146;2024-03-23T01:49:08;8.40;94.60
5226;DHT22;2632;51.666;7.146;2024-03-23T01:51:34;8.30;94.50
5226;DHT22;2632;51.666;7.146;2024-03-23T01:54:02;12.10;95.90
5226;DHT22;2632;51.666;7.146;2024-03-23T01:56:33;8.40;94.90
5226;DHT22;2632;51.666;7.146;2024-03-23T01:59:05;8.30;94.40
5226;DHT22;2632;51.666;7.146;2024-03-23T02:01:32;8.20;94.60
5226;DHT22;2632;51.666;7.146;2024-03-23T02:03:58;8.20;94.50
5226;DHT22;2632;51.666;7.146;2024-03-23T02:06:24;8.20;94.60
5226;DHT22;2632;51.666;7.146;2024-03-23T02:08:51;8.20;94.50
5226;DHT22;2632;51.666;7.146;2024-03-23T02:11:17;8.20;94.50
5226;DHT22;2632;51.666;7.146;2024-03-23T02:13:42;8.20;94.90
5226;DHT22;2632;51.666;7.146;2024-03-23T02:16:08;8.20;95.00
5226;DHT22;2632;51.666;7.146;2024-03-23T02:18:34;8.20;94.70
5226;DHT22;2632;51.666;7.146;2024-03-23T02:21:00;8.20;94.60
5226;DHT22;2632;51.666;7.146;2024-03-23T02:23:26;8.20;94.50
5226;DHT22;2632;51.666;7.146;2024-03-23T02:25:52;8.90;94.90
5226;DHT22;2632;51.666;7.146;2024-03-23T02:28:19;8.10;94.60
5226;DHT22;2632;51.666;7.146;2024-03-23T02:30:45;8.10;94.60
5226;DHT22;2632;51.666;7.146;2024-03-23T02:33:11;8.10;94.40
5226;DHT22;2632;51.666;7.146;2024-03-23T02:35:36;8.10;94.40
5226;DHT22;2632;51.666;7.146;2024-03-23T02:38:02;8.20;94.40
5226;DHT22;2632;51.666;7.146;2024-03-23T02:40:28;8.10;94.40
5226;DHT22;2632;51.666;7.146;2024-03-23T02:42:54;8.10;94.30
5226;DHT22;2632;51.666;7.146;2024-03-23T02:45:20;8.10;94.50
5226;DHT22;2632;51.666;7.146;2024-03-23T02:47:46;8.10;94.30
5226;DHT22;2632;51.666;7.146;2024-03-23T02:50:12;8.10;94.50
5226;DHT22;2632;51.666;7.146;2024-03-23T02:52:38;8.10;94.40
5226;DHT22;2632;51.666;7.146;2024-03-23T02:55:04;8.10;94.20
5226;DHT22;2632;51.666;7.146;2024-03-23T02:57:30;8.00;94.50
5226;DHT22;2632;51.666;7.146;2024-03-23T02:59:56;8.00;93.90
5226;DHT22;2632;51.666;7.146;2024-03-23T03:02:22;8.00;94.30
5226;DHT22;2632;51.666;7.146;2024-03-23T03:04:48;8.00;94.20
5226;DHT22;2632;51.666;7.146;2024-03-23T03:07:14;8.00;95.00
5226;DHT22;2632;51.666;7.146;2024-03-23T03:09:40;8.00;95.00
5226;DHT22;2632;51.666;7.146;2024-03-23T03:12:06;8.00;94.00
5226;DHT22;2632;51.666;7.146;2024-03-23T03:14:32;7.90;94.10
5226;DHT22;2632;51.666;7.146;2024-03-23T03:16:58;7.90;94.00
5226;DHT22;2632;51.666;7.146;2024-03-23T03:19:24;7.90;94.50
5226;DHT22;2632;51.666;7.146;2024-03-23T03:21:49;7.80;94.00
5226;DHT22;2632;51.666;7.146;2024-03-23T03:24:15;8.00;93.90
5226;DHT22;2632;51.666;7.146;2024-03-23T03:26:41;7.80;93.90
5226;DHT22;2632;51.666;7.146;2024-03-23T03:29:07;7.80;94.70
5226;DHT22;2632;51.666;7.146;2024-03-23T03:31:33;7.90;93.90
5226;DHT22;2632;51.666;7.146;2024-03-23T03:33:59;7.90;93.80
5226;DHT22;2632;51.666;7.146;2024-03-23T03:36:24;8.00;93.90
5226;DHT22;2632;51.666;7.146;2024-03-23T03:38:50;8.00;93.40
5226;DHT22;2632;51.666;7.146;2024-03-23T03:41:16;8.00;93.70
5226;DHT22;2632;51.666;7.146;2024-03-23T03:43:42;8.50;94.20
5226;DHT22;2632;51.666;7.146;2024-03-23T03:46:07;7.90;93.50
5226;DHT22;2632;51.666;7.146;2024-03-23T03:48:34;7.90;93.50
5226;DHT22;2632;51.666;7.146;2024-03-23T03:51:00;7.90;93.40
5226;DHT22;2632;51.666;7.146;2024-03-23T03:53:25;7.80;93.80
5226;DHT22;2632;51.666;7.146;2024-03-23T03:55:52;7.80;93.80
5226;DHT22;2632;51.666;7.146;2024-03-23T03:58:18;7.90;93.80
5226;DHT22;2632;51.666;7.146;2024-03-23T04:00:43;7.80;93.50
5226;DHT22;2632;51.666;7.146;2024-03-23T04:03:09;7.80;93.50
5226;DHT22;2632;51.666;7.146;2024-03-23T04:05:35;7.80;93.80
5226;DHT22;2632;51.666;7.146;2024-03-23T04:08:01;7.80;93.70
5226;DHT22;2632;51.666;7.146;2024-03-23T04:10:27;7.80;93.50
5226;DHT22;2632;51.666;7.146;2024-03-23T04:12:53;7.90;93.80
5226;DHT22;2632;51.666;7.146;2024-03-23T04:15:25;7.80;93.70
5226;DHT22;2632;51.666;7.146;2024-03-23T04:17:50;7.90;93.70
5226;DHT22;2632;51.666;7.146;2024-03-23T04:20:16;7.80;93.80
5226;DHT22;2632;51.666;7.146;2024-03-23T04:22:43;7.80;93.90
5226;DHT22;2632;51.666;7.146;2024-03-23T04:25:09;7.90;94.10
5226;DHT22;2632;51.666;7.146;2024-03-23T04:27:36;7.80;94.00
5226;DHT22;2632;51.666;7.146;2024-03-23T04:30:04;7.80;94.00
5226;DHT22;2632;51.666;7.146;2024-03-23T04:32:35;7.80;94.10
5226;DHT22;2632;51.666;7.146;2024-03-23T04:35:01;7.90;94.30
5226;DHT22;2632;51.666;7.146;2024-03-23T04:37:27;7.80;93.50
5226;DHT22;2632;51.666;7.146;2024-03-23T04:39:52;7.80;93.10
5226;DHT22;2632;51.666;7.146;2024-03-23T04:42:18;7.80;93.50
5226;DHT22;2632;51.666;7.146;2024-03-23T04:44:44;7.90;93.70
5226;DHT22;2632;51.666;7.146;2024-03-23T04:47:10;7.90;93.90
5226;DHT22;2632;51.666;7.146;2024-03-23T04:49:36;7.80;93.30
5226;DHT22;2632;51.666;7.146;2024-03-23T04:52:05;7.70;93.30
5226;DHT22;2632;51.666;7.146;2024-03-23T04:54:31;7.70;93.70
5226;DHT22;2632;51.666;7.146;2024-03-23T04:57:00;7.80;93.70
5226;DHT22;2632;51.666;7.146;2024-03-23T04:59:25;7.80;93.60
5226;DHT22;2632;51.666;7.146;2024-03-23T05:01:51;7.70;93.40
5226;DHT22;2632;51.666;7.146;2024-03-23T05:04:17;7.80;93.80
5226;DHT22;2632;51.666;7.146;2024-03-23T05:06:43;7.80;93.60
5226;DHT22;2632;51.666;7.146;2024-03-23T05:09:09;7.80;94.10
5226;DHT22;2632;51.666;7.146;2024-03-23T05:11:40;7.80;94.00
5226;DHT22;2632;51.666;7.146;2024-03-23T05:14:09;7.80;93.90
5226;DHT22;2632;51.666;7.146;2024-03-23T05:16:35;7.80;93.70
5226;DHT22;2632;51.666;7.146;2024-03-23T05:19:00;7.90;94.10
5226;DHT22;2632;51.666;7.146;2024-03-23T05:21:27;7.80;93.80
5226;DHT22;2632;51.666;7.146;2024-03-23T05:23:54;8.10;93.90
5226;DHT22;2632;51.666;7.146;2024-03-23T05:26:20;7.70;94.20
5226;DHT22;2632;51.666;7.146;2024-03-23T05:28:46;7.70;94.20
5226;DHT22;2632;51.666;7.146;2024-03-23T05:31:11;7.80;94.60
5226;DHT22;2632;51.666;7.146;2024-03-23T05:33:37;7.90;94.10
5226;DHT22;2632;51.666;7.146;2024-03-23T05:36:06;7.80;94.20
5226;DHT22;2632;51.666;7.146;2024-03-23T05:38:36;7.80;94.10
5226;DHT22;2632;51.666;7.146;2024-03-23T05:41:02;7.80;94.10
5226;DHT22;2632;51.666;7.146;2024-03-23T05:43:28;7.80;94.40
5226;DHT22;2632;51.666;7.146;2024-03-23T05:45:58;7.70;94.30
5226;DHT22;2632;51.666;7.146;2024-03-23T05:48:25;7.70;94.50
5226;DHT22;2632;51.666;7.146;2024-03-23T05:50:52;7.80;94.60
5226;DHT22;2632;51.666;7.146;2024-03-23T05:53:18;7.80;94.20
5226;DHT22;2632;51.666;7.146;2024-03-23T05:55:46;7.80;94.20
5226;DHT22;2632;51.666;7.146;2024-03-23T05:58:14;7.90;94.10
5226;DHT22;2632;51.666;7.146;2024-03-23T06:00:41;7.90;94.20
5226;DHT22;2632;51.666;7.146;2024-03-23T06:03:08;7.80;94.00
5226;DHT22;2632;51.666;7.146;2024-03-23T06:05:34;7.80;94.10
5226;DHT22;2632;51.666;7.146;2024-03-23T06:08:03;7.90;94.50
5226;DHT22;2632;51.666;7.146;2024-03-23T06:10:29;10.70;94.80
5226;DHT22;2632;51.666;7.146;2024-03-23T06:12:55;7.80;94.60
5226;DHT22;2632;51.666;7.146;2024-03-23T06:15:20;7.90;94.10
5226;DHT22;2632;51.666;7.146;2024-03-23T06:17:48;7.80;94.30
5226;DHT22;2632;51.666;7.146;2024-03-23T06:20:14;7.90;94.40
5226;DHT22;2632;51.666;7.146;2024-03-23T06:22:40;7.90;94.20
5226;DHT22;2632;51.666;7.146;2024-03-23T06:25:06;7.90;94.30
5226;DHT22;2632;51.666;7.146;2024-03-23T06:27:33;7.90;94.30
5226;DHT22;2632;51.666;7.146;2024-03-23T06:30:02;7.90;94.20
5226;DHT22;2632;51.666;7.146;2024-03-23T06:32:28;8.00;94.50
5226;DHT22;2632;51.666;7.146;2024-03-23T06:34:57;8.10;93.90
5226;DHT22;2632;51.666;7.146;2024-03-23T06:37:22;8.20;93.80
5226;DHT22;2632;51.666;7.146;2024-03-23T06:39:48;8.20;93.80
5226;DHT22;2632;51.666;7.146;2024-03-23T06:42:14;8.20;93.30
5226;DHT22;2632;51.666;7.146;2024-03-23T06:44:39;8.30;93.60
5226;DHT22;2632;51.666;7.146;2024-03-23T06:47:06;8.40;93.50
5226;DHT22;2632;51.666;7.146;2024-03-23T06:49:31;8.60;93.30
5226;DHT22;2632;51.666;7.146;2024-03-23T06:51:57;8.60;93.40
5226;DHT22;2632;51.666;7.146;2024-03-23T06:54:24;8.60;93.20
5226;DHT22;2632;51.666;7.146;2024-03-23T06:56:50;8.80;93.10
5226;DHT22;2632;51.666;7.146;2024-03-23T06:59:16;9.10;92.60
5226;DHT22;2632;51.666;7.146;2024-03-23T07:01:42;9.30;92.20
5226;DHT22;2632;51.666;7.146;2024-03-23T07:04:08;9.50;91.90
5226;DHT22;2632;51.666;7.146;2024-03-23T07:06:33;9.70;91.80
5226;DHT22;2632;51.666;7.146;2024-03-23T07:08:59;9.80;91.40
5226;DHT22;2632;51.666;7.146;2024-03-23T07:11:25;9.90;91.10
5226;DHT22;2632;51.666;7.146;2024-03-23T07:13:54;10.00;91.20
5226;DHT22;2632;51.666;7.146;2024-03-23T07:16:20;10.10;90.50
5226;DHT22;2632;51.666;7.146;2024-03-23T07:18:46;10.20;90.20
5226;DHT22;2632;51.666;7.146;2024-03-23T07:21:12;10.20;90.60
5226;DHT22;2632;51.666;7.146;2024-03-23T07:23:38;10.30;90.70
5226;DHT22;2632;51.666;7.146;2024-03-23T07:26:07;10.40;90.00
5226;DHT22;2632;51.666;7.146;2024-03-23T07:28:33;10.50;90.00
5226;DHT22;2632;51.666;7.146;2024-03-23T07:31:07;10.30;89.70
5226;DHT22;2632;51.666;7.146;2024-03-23T07:33:35;10.30;90.30
5226;DHT22;2632;51.666;7.146;2024-03-23T07:36:01;10.60;89.30
5226;DHT22;2632;51.666;7.146;2024-03-23T07:38:28;11.30;88.10
5226;DHT22;2632;51.666;7.146;2024-03-23T07:43:33;12.90;81.80
5226;DHT22;2632;51.666;7.146;2024-03-23T07:45:59;13.40;80.60
5226;DHT22;2632;51.666;7.146;2024-03-23T07:48:29;14.10;79.40
5226;DHT22;2632;51.666;7.146;2024-03-23T07:51:19;13.00;79.60
5226;DHT22;2632;51.666;7.146;2024-03-23T07:53:46;14.70;83.70
5226;DHT22;2632;51.666;7.146;2024-03-23T07:56:12;11.50;83.50
5226;DHT22;2632;51.666;7.146;2024-03-23T07:58:38;11.70;83.10
5226;DHT22;2632;51.666;7.146;2024-03-23T08:01:08;11.70;83.20
5226;DHT22;2632;51.666;7.146;2024-03-23T08:03:38;12.10;83.40
5226;DHT22;2632;51.666;7.146;2024-03-23T08:08:38;13.60;78.30
5226;DHT22;2632;51.666;7.146;2024-03-23T08:11:04;14.80;73.30
5226;DHT22;2632;51.666;7.146;2024-03-23T08:13:30;13.90;74.00
5226;DHT22;2632;51.666;7.146;2024-03-23T08:15:57;12.50;77.10
5226;DHT22;2632;51.666;7.146;2024-03-23T08:18:23;13.30;78.00
5226;DHT22;2632;51.666;7.146;2024-03-23T08:20:59;13.30;77.80
5226;DHT22;2632;51.666;7.146;2024-03-23T08:23:26;13.40;74.30
5226;DHT22;2632;51.666;7.146;2024-03-23T08:25:54;14.00;75.00
5226;DHT22;2632;51.666;7.146;2024-03-23T08:28:22;14.40;71.60
5226;DHT22;2632;51.666;7.146;2024-03-23T08:30:48;14.50;71.10
5226;DHT22;2632;51.666;7.146;2024-03-23T08:33:15;14.80;72.10
5226;DHT22;2632;51.666;7.146;2024-03-23T08:35:41;15.00;69.40
5226;DHT22;2632;51.666;7.146;2024-03-23T08:38:07;16.00;69.60
5226;DHT22;2632;51.666;7.146;2024-03-23T08:40:33;16.40;69.70
5226;DHT22;2632;51.666;7.146;2024-03-23T08:42:59;15.90;69.10
5226;DHT22;2632;51.666;7.146;2024-03-23T08:45:25;15.70;70.70
5226;DHT22;2632;51.666;7.146;2024-03-23T08:47:51;14.10;71.80
5226;DHT22;2632;51.666;7.146;2024-03-23T08:50:17;13.60;75.20
5226;DHT22;2632;51.666;7.146;2024-03-23T08:52:43;14.10;74.60
5226;DHT22;2632;51.666;7.146;2024-03-23T08:55:09;14.90;71.70
5226;DHT22;2632;51.666;7.146;2024-03-23T08:57:35;14.40;70.80
5226;DHT22;2632;51.666;7.146;2024-03-23T09:00:02;13.50;73.30
5226;DHT22;2632;51.666;7.146;2024-03-23T09:02:28;12.90;74.30
5226;DHT22;2632;51.666;7.146;2024-03-23T09:04:54;13.50;73.70
5226;DHT22;2632;51.666;7.146;2024-03-23T09:07:19;16.00;69.00
5226;DHT22;2632;51.666;7.146;2024-03-23T09:09:45;16.80;65.00
5226;DHT22;2632;51.666;7.146;2024-03-23T09:12:11;17.30;65.80
5226;DHT22;2632;51.666;7.146;2024-03-23T09:14:37;19.20;60.70
5226;DHT22;2632;51.666;7.146;2024-03-23T09:17:02;17.50;60.00
5226;DHT22;2632;51.666;7.146;2024-03-23T09:19:28;16.00;66.20
5226;DHT22;2632;51.666;7.146;2024-03-23T09:21:55;18.10;62.50
5226;DHT22;2632;51.666;7.146;2024-03-23T09:24:21;16.00;63.80
5226;DHT22;2632;51.666;7.146;2024-03-23T09:26:47;15.50;63.40
5226;DHT22;2632;51.666;7.146;2024-03-23T09:29:13;13.90;68.70
5226;DHT22;2632;51.666;7.146;2024-03-23T09:31:39;13.20;70.80
5226;DHT22;2632;51.666;7.146;2024-03-23T09:34:06;12.40;72.60
5226;DHT22;2632;51.666;7.146;2024-03-23T09:36:32;12.00;73.00
5226;DHT22;2632;51.666;7.146;2024-03-23T09:38:58;12.90;70.20
5226;DHT22;2632;51.666;7.146;2024-03-23T09:41:23;12.50;71.80
5226;DHT22;2632;51.666;7.146;2024-03-23T09:43:52;16.20;64.20
5226;DHT22;2632;51.666;7.146;2024-03-23T09:46:19;17.40;58.70
5226;DHT22;2632;51.666;7.146;2024-03-23T09:48:46;14.60;63.50
5226;DHT22;2632;51.666;7.146;2024-03-23T09:51:12;14.10;65.00
5226;DHT22;2632;51.666;7.146;2024-03-23T09:53:38;15.40;65.20
5226;DHT22;2632;51.666;7.146;2024-03-23T09:56:04;18.30;56.00
5226;DHT22;2632;51.666;7.146;2024-03-23T09:58:30;19.90;54.10
5226;DHT22;2632;51.666;7.146;2024-03-23T10:00:58;20.70;48.40
5226;DHT22;2632;51.666;7.146;2024-03-23T10:03:24;21.20;48.00
5226;DHT22;2632;51.666;7.146;2024-03-23T10:06:03;20.60;48.90
5226;DHT22;2632;51.666;7.146;2024-03-23T10:08:30;18.70;50.60
5226;DHT22;2632;51.666;7.146;2024-03-23T10:10:56;15.60;58.50
5226;DHT22;2632;51.666;7.146;2024-03-23T10:13:26;14.40;63.90
5226;DHT22;2632;51.666;7.146;2024-03-23T10:15:57;13.70;65.70
5226;DHT22;2632;51.666;7.146;2024-03-23T10:18:23;13.60;65.80
5226;DHT22;2632;51.666;7.146;2024-03-23T10:23:34;14.30;62.60
5226;DHT22;2632;51.666;7.146;2024-03-23T10:26:30;15.00;62.30
5226;DHT22;2632;51.666;7.146;2024-03-23T10:29:01;15.60;60.60
5226;DHT22;2632;51.666;7.146;2024-03-23T10:31:31;16.20;59.60
5226;DHT22;2632;51.666;7.146;2024-03-23T10:33:57;16.50;60.10
5226;DHT22;2632;51.666;7.146;2024-03-23T10:36:24;16.40;58.00
5226;DHT22;2632;51.666;7.146;2024-03-23T10:38:52;15.90;60.30
5226;DHT22;2632;51.666;7.146;2024-03-23T10:41:18;16.10;57.70
5226;DHT22;2632;51.666;7.146;2024-03-23T10:43:48;16.50;56.50
5226;DHT22;2632;51.666;7.146;2024-03-23T10:46:14;15.40;58.40
5226;DHT22;2632;51.666;7.146;2024-03-23T10:48:40;16.20;58.00
5226;DHT22;2632;51.666;7.146;2024-03-23T10:51:10;17.20;55.30
5226;DHT22;2632;51.666;7.146;2024-03-23T10:53:36;15.80;58.40
5226;DHT22;2632;51.666;7.146;2024-03-23T10:56:06;14.50;59.30
5226;DHT22;2632;51.666;7.146;2024-03-23T10:58:38;14.90;60.00
5226;DHT22;2632;51.666;7.146;2024-03-23T11:01:04;14.30;60.70
5226;DHT22;2632;51.666;7.146;2024-03-23T11:03:33;13.50;62.80
5226;DHT22;2632;51.666;7.146;2024-03-23T11:06:00;13.10;62.30
5226;DHT22;2632;51.666;7.146;2024-03-23T11:08:39;13.00;63.30
5226;DHT22;2632;51.666;7.146;2024-03-23T11:11:18;13.10;64.10
5226;DHT22;2632;51.666;7.146;2024-03-23T11:13:48;12.80;65.10
5226;DHT22;2632;51.666;7.146;2024-03-23T11:16:15;12.30;66.80
5226;DHT22;2632;51.666;7.146;2024-03-23T11:18:41;11.90;68.10
5226;DHT22;2632;51.666;7.146;2024-03-23T11:21:08;11.80;68.40
5226;DHT22;2632;51.666;7.146;2024-03-23T11:23:34;11.70;66.80
5226;DHT22;2632;51.666;7.146;2024-03-23T11:25:59;12.90;62.00
5226;DHT22;2632;51.666;7.146;2024-03-23T11:28:26;15.80;55.10
5226;DHT22;2632;51.666;7.146;2024-03-23T11:30:51;17.30;48.50
5226;DHT22;2632;51.666;7.146;2024-03-23T11:33:17;18.20;47.40
5226;DHT22;2632;51.666;7.146;2024-03-23T11:35:43;19.20;43.20
5226;DHT22;2632;51.666;7.146;2024-03-23T11:38:14;19.40;43.10
5226;DHT22;2632;51.666;7.146;2024-03-23T11:40:48;18.80;42.10
5226;DHT22;2632;51.666;7.146;2024-03-23T11:43:19;19.10;46.20
5226;DHT22;2632;51.666;7.146;2024-03-23T11:45:45;19.30;46.80
5226;DHT22;2632;51.666;7.146;2024-03-23T11:48:13;19.70;44.30
5226;DHT22;2632;51.666;7.146;2024-03-23T11:50:41;19.80;46.00
5226;DHT22;2632;51.666;7.146;2024-03-23T11:53:08;17.50;47.60
5226;DHT22;2632;51.666;7.146;2024-03-23T11:55:48;15.70;54.50
5226;DHT22;2632;51.666;7.146;2024-03-23T11:58:19;15.20;57.60
5226;DHT22;2632;51.666;7.146;2024-03-23T12:00:54;14.50;58.00
5226;DHT22;2632;51.666;7.146;2024-03-23T12:03:20;13.90;60.50
5226;DHT22;2632;51.666;7.146;2024-03-23T12:05:52;14.10;63.30
5226;DHT22;2632;51.666;7.146;2024-03-23T12:08:29;14.90;62.90
5226;DHT22;2632;51.666;7.146;2024-03-23T12:11:05;14.60;63.00
5226;DHT22;2632;51.666;7.146;2024-03-23T12:13:31;14.20;63.70
5226;DHT22;2632;51.666;7.146;2024-03-23T12:16:09;13.90;63.20
5226;DHT22;2632;51.666;7.146;2024-03-23T12:18:36;15.40;61.50
5226;DHT22;2632;51.666;7.146;2024-03-23T12:21:02;16.10;59.70
5226;DHT22;2632;51.666;7.146;2024-03-23T12:23:28;15.60;58.80
5226;DHT22;2632;51.666;7.146;2024-03-23T12:25:54;14.00;62.60
5226;DHT22;2632;51.666;7.146;2024-03-23T12:28:19;13.20;65.70
5226;DHT22;2632;51.666;7.146;2024-03-23T12:30:45;12.90;66.50
5226;DHT22;2632;51.666;7.146;2024-03-23T12:33:11;12.10;71.90
5226;DHT22;2632;51.666;7.146;2024-03-23T12:35:37;11.80;73.40
5226;DHT22;2632;51.666;7.146;2024-03-23T12:38:02;12.70;73.20
5226;DHT22;2632;51.666;7.146;2024-03-23T12:40:28;13.20;68.90
5226;DHT22;2632;51.666;7.146;2024-03-23T12:42:54;13.10;71.50
5226;DHT22;2632;51.666;7.146;2024-03-23T12:45:22;12.50;73.30
5226;DHT22;2632;51.666;7.146;2024-03-23T12:47:48;12.10;75.80
5226;DHT22;2632;51.666;7.146;2024-03-23T12:50:13;12.20;77.10
5226;DHT22;2632;51.666;7.146;2024-03-23T12:52:39;13.00;75.60
5226;DHT22;2632;51.666;7.146;2024-03-23T12:55:05;13.00;73.80
5226;DHT22;2632;51.666;7.146;2024-03-23T12:57:32;12.70;73.60
5226;DHT22;2632;51.666;7.146;2024-03-23T12:59:57;12.70;75.60
5226;DHT22;2632;51.666;7.146;2024-03-23T13:02:24;12.90;73.90
5226;DHT22;2632;51.666;7.146;2024-03-23T13:04:50;13.10;71.40
5226;DHT22;2632;51.666;7.146;2024-03-23T13:07:17;13.30;70.10
5226;DHT22;2632;51.666;7.146;2024-03-23T13:09:43;13.60;67.70
5226;DHT22;2632;51.666;7.146;2024-03-23T13:12:09;14.20;66.40
5226;DHT22;2632;51.666;7.146;2024-03-23T13:14:35;16.20;63.20
5226;DHT22;2632;51.666;7.146;2024-03-23T13:17:01;16.60;58.20
5226;DHT22;2632;51.666;7.146;2024-03-23T13:19:28;18.10;56.90
5226;DHT22;2632;51.666;7.146;2024-03-23T13:21:57;16.60;55.80
5226;DHT22;2632;51.666;7.146;2024-03-23T13:24:26;14.60;57.70
5226;DHT22;2632;51.666;7.146;2024-03-23T13:26:53;13.80;59.40
5226;DHT22;2632;51.666;7.146;2024-03-23T13:29:19;13.90;59.70
5226;DHT22;2632;51.666;7.146;2024-03-23T13:31:46;13.80;59.90
5226;DHT22;2632;51.666;7.146;2024-03-23T13:34:12;14.80;58.80
5226;DHT22;2632;51.666;7.146;2024-03-23T13:36:42;14.90;57.50
5226;DHT22;2632;51.666;7.146;2024-03-23T13:39:08;15.00;58.90
5226;DHT22;2632;51.666;7.146;2024-03-23T13:41:42;14.70;61.40
5226;DHT22;2632;51.666;7.146;2024-03-23T13:44:09;14.30;62.80
5226;DHT22;2632;51.666;7.146;2024-03-23T13:46:36;13.90;64.90
5226;DHT22;2632;51.666;7.146;2024-03-23T13:49:03;13.20;65.20
5226;DHT22;2632;51.666;7.146;2024-03-23T13:51:29;12.80;67.10
5226;DHT22;2632;51.666;7.146;2024-03-23T13:53:55;12.50;69.30
5226;DHT22;2632;51.666;7.146;2024-03-23T13:56:25;12.40;68.80
5226;DHT22;2632;51.666;7.146;2024-03-23T13:58:50;12.20;69.10
5226;DHT22;2632;51.666;7.146;2024-03-23T14:01:17;12.40;69.10
5226;DHT22;2632;51.666;7.146;2024-03-23T14:03:44;13.50;68.40
5226;DHT22;2632;51.666;7.146;2024-03-23T14:06:10;13.80;65.60
5226;DHT22;2632;51.666;7.146;2024-03-23T14:08:37;13.40;66.20
5226;DHT22;2632;51.666;7.146;2024-03-23T14:11:05;12.70;68.10
5226;DHT22;2632;51.666;7.146;2024-03-23T14:13:31;12.60;67.50
5226;DHT22;2632;51.666;7.146;2024-03-23T14:15:58;13.20;68.60
5226;DHT22;2632;51.666;7.146;2024-03-23T14:18:24;13.80;67.00
5226;DHT22;2632;51.666;7.146;2024-03-23T14:20:52;14.10;63.80
5226;DHT22;2632;51.666;7.146;2024-03-23T14:23:19;13.90;63.80
5226;DHT22;2632;51.666;7.146;2024-03-23T14:25:45;13.50;65.30
5226;DHT22;2632;51.666;7.146;2024-03-23T14:28:11;13.10;65.30
5226;DHT22;2632;51.666;7.146;2024-03-23T14:30:41;12.80;66.70
5226;DHT22;2632;51.666;7.146;2024-03-23T14:33:07;13.00;67.20
5226;DHT22;2632;51.666;7.146;2024-03-23T14:35:33;12.90;66.30
5226;DHT22;2632;51.666;7.146;2024-03-23T14:37:59;12.80;68.80
5226;DHT22;2632;51.666;7.146;2024-03-23T14:40:25;12.90;67.70
5226;DHT22;2632;51.666;7.146;2024-03-23T14:42:56;13.00;67.80
5226;DHT22;2632;51.666;7.146;2024-03-23T14:45:22;13.20;66.40
5226;DHT22;2632;51.666;7.146;2024-03-23T14:47:50;13.20;63.30
5226;DHT22;2632;51.666;7.146;2024-03-23T14:50:16;13.20;63.40
5226;DHT22;2632;51.666;7.146;2024-03-23T14:52:45;13.00;64.30
5226;DHT22;2632;51.666;7.146;2024-03-23T14:55:12;12.60;64.40
5226;DHT22;2632;51.666;7.146;2024-03-23T14:57:38;12.60;66.00
5226;DHT22;2632;51.666;7.146;2024-03-23T15:00:08;12.90;64.90
5226;DHT22;2632;51.666;7.146;2024-03-23T15:02:39;13.30;64.30
5226;DHT22;2632;51.666;7.146;2024-03-23T15:05:05;13.40;62.70
5226;DHT22;2632;51.666;7.146;2024-03-23T15:07:36;13.00;63.20
5226;DHT22;2632;51.666;7.146;2024-03-23T15:10:02;13.00;62.50
5226;DHT22;2632;51.666;7.146;2024-03-23T15:12:30;12.80;62.80
5226;DHT22;2632;51.666;7.146;2024-03-23T15:14:58;13.00;63.30
5226;DHT22;2632;51.666;7.146;2024-03-23T15:17:24;13.20;66.80
5226;DHT22;2632;51.666;7.146;2024-03-23T15:19:50;13.10;58.90
5226;DHT22;2632;51.666;7.146;2024-03-23T15:22:16;13.30;62.00
5226;DHT22;2632;51.666;7.146;2024-03-23T15:24:41;13.00;58.50
5226;DHT22;2632;51.666;7.146;2024-03-23T15:27:07;13.00;62.70
5226;DHT22;2632;51.666;7.146;2024-03-23T15:29:34;13.10;61.70
5226;DHT22;2632;51.666;7.146;2024-03-23T15:32:02;13.10;60.30
5226;DHT22;2632;51.666;7.146;2024-03-23T15:34:29;12.80;60.10
5226;DHT22;2632;51.666;7.146;2024-03-23T15:36:55;12.50;61.90
5226;DHT22;2632;51.666;7.146;2024-03-23T15:39:20;12.10;62.70
5226;DHT22;2632;51.666;7.146;2024-03-23T15:41:51;12.10;62.50
5226;DHT22;2632;51.666;7.146;2024-03-23T15:44:17;12.30;62.80
5226;DHT22;2632;51.666;7.146;2024-03-23T15:46:42;12.50;61.70
5226;DHT22;2632;51.666;7.146;2024-03-23T15:49:08;12.50;61.50
5226;DHT22;2632;51.666;7.146;2024-03-23T15:51:34;12.30;60.20
5226;DHT22;2632;51.666;7.146;2024-03-23T15:54:02;12.10;61.20
5226;DHT22;2632;51.666;7.146;2024-03-23T15:56:31;12.10;62.90
5226;DHT22;2632;51.666;7.146;2024-03-23T15:58:59;11.90;62.60
5226;DHT22;2632;51.666;7.146;2024-03-23T16:01:32;11.60;62.70
5226;DHT22;2632;51.666;7.146;2024-03-23T16:04:00;11.70;62.70
5226;DHT22;2632;51.666;7.146;2024-03-23T16:06:26;11.60;62.10
5226;DHT22;2632;51.666;7.146;2024-03-23T16:08:52;11.70;61.70
5226;DHT22;2632;51.666;7.146;2024-03-23T16:11:19;12.00;61.70
5226;DHT22;2632;51.666;7.146;2024-03-23T16:13:46;12.00;61.40
5226;DHT22;2632;51.666;7.146;2024-03-23T16:16:12;11.80;62.20
5226;DHT22;2632;51.666;7.146;2024-03-23T16:18:38;11.70;64.00
5226;DHT22;2632;51.666;7.146;2024-03-23T16:21:11;11.60;63.70
5226;DHT22;2632;51.666;7.146;2024-03-23T16:23:37;11.40;65.20
5226;DHT22;2632;51.666;7.146;2024-03-23T16:26:03;11.10;66.00
5226;DHT22;2632;51.666;7.146;2024-03-23T16:28:31;11.10;67.20
5226;DHT22;2632;51.666;7.146;2024-03-23T16:30:58;11.10;68.00
5226;DHT22;2632;51.666;7.146;2024-03-23T16:33:25;11.10;68.20
5226;DHT22;2632;51.666;7.146;2024-03-23T16:36:15;11.10;67.90
5226;DHT22;2632;51.666;7.146;2024-03-23T16:38:43;10.80;68.40
5226;DHT22;2632;51.666;7.146;2024-03-23T16:41:12;10.60;69.10
5226;DHT22;2632;51.666;7.146;2024-03-23T16:43:44;10.60;68.60
5226;DHT22;2632;51.666;7.146;2024-03-23T16:46:12;10.70;69.80
5226;DHT22;2632;51.666;7.146;2024-03-23T16:48:39;10.50;69.90
5226;DHT22;2632;51.666;7.146;2024-03-23T16:51:05;10.60;70.20
5226;DHT22;2632;51.666;7.146;2024-03-23T16:53:32;10.60;70.20
5226;DHT22;2632;51.666;7.146;2024-03-23T16:56:05;10.50;70.60
5226;DHT22;2632;51.666;7.146;2024-03-23T16:58:33;10.30;70.40
5226;DHT22;2632;51.666;7.146;2024-03-23T17:01:04;10.50;70.50
5226;DHT22;2632;51.666;7.146;2024-03-23T17:03:30;10.20;71.50
5226;DHT22;2632;51.666;7.146;2024-03-23T17:05:56;10.00;73.50